sensor_id;sensor_type;location;lat;lon;timestamp;P1;durP1;ratioP1;P2;durP2;ratioP2
39140;SDS011;24875;48.436;10.298;2024-02-15T00:01:17;4.50;;;2.20;;
39140;SDS011;24875;48.436;10.298;2024-02-15T00:03:44;3.53;;;1.73;;
39140;SDS011;24875;48.436;10.298;2024-02-15T00:06:12;3.77;;;2.07;;
39140;SDS011;24875;48.436;10.298;2024-02-15T00:08:38;3.70;;;2.20;;
39140;SDS011;24875;48.436;10.298;2024-02-15T00:11:05;3.50;;;2.10;;
39140;SDS011;24875;48.436;10.298;2024-02-15T00:13:34;4.40;;;2.47;;
39140;SDS011;24875;48.436;10.298;2024-02-15T00:16:01;4.27;;;2.63;;
39140;SDS011;24875;48.436;10.298;2024-02-15T00:18:28;4.10;;;2.30;;
39140;SDS011;24875;48.436;10.298;2024-02-15T00:20:55;3.77;;;2.00;;
39140;SDS011;24875;48.436;10.298;2024-02-15T00:23:23;3.83;;;2.00;;
39140;SDS011;24875;48.436;10.298;2024-02-15T00:25:50;6.37;;;2.50;;
39140;SDS011;24875;48.436;10.298;2024-02-15T00:28:16;4.80;;;2.30;;
39140;SDS011;24875;48.436;10.298;2024-02-15T00:30:43;2.73;;;1.80;;
39140;SDS011;24875;48.436;10.298;2024-02-15T00:33:09;3.70;;;2.10;;
39140;SDS011;24875;48.436;10.298;2024-02-15T00:35:36;3.73;;;1.90;;
39140;SDS011;24875;48.436;10.298;2024-02-15T00:38:02;2.80;;;2.00;;
39140;SDS011;24875;48.436;10.298;2024-02-15T00:40:32;2.87;;;2.00;;
39140;SDS011;24875;48.436;10.298;2024-02-15T00:42:58;3.07;;;1.83;;
39140;SDS011;24875;48.436;10.298;2024-02-15T00:45:24;3.37;;;1.93;;
39140;SDS011;24875;48.436;10.298;2024-02-15T00:47:51;5.03;;;1.90;;
39140;SDS011;24875;48.436;10.298;2024-02-15T00:50:19;5.93;;;1.97;;
39140;SDS011;24875;48.436;10.298;2024-02-15T00:52:45;3.67;;;1.97;;
39140;SDS011;24875;48.436;10.298;2024-02-15T00:55:12;3.83;;;2.23;;
39140;SDS011;24875;48.436;10.298;2024-02-15T00:57:40;3.33;;;1.70;;
39140;SDS011;24875;48.436;10.298;2024-02-15T01:00:07;5.50;;;1.67;;
39140;SDS011;24875;48.436;10.298;2024-02-15T01:02:34;2.77;;;1.80;;
39140;SDS011;24875;48.436;10.298;2024-02-15T01:05:01;2.13;;;1.63;;
39140;SDS011;24875;48.436;10.298;2024-02-15T01:07:29;3.73;;;2.00;;
39140;SDS011;24875;48.436;10.298;2024-02-15T01:09:55;2.20;;;1.60;;
39140;SDS011;24875;48.436;10.298;2024-02-15T01:12:22;3.67;;;2.27;;
39140;SDS011;24875;48.436;10.298;2024-02-15T01:14:50;2.00;;;1.60;;
39140;SDS011;24875;48.436;10.298;2024-02-15T01:17:16;3.13;;;2.20;;
39140;SDS011;24875;48.436;10.298;2024-02-15T01:19:43;4.40;;;1.30;;
39140;SDS011;24875;48.436;10.298;2024-02-15T01:22:10;2.80;;;1.97;;
39140;SDS011;24875;48.436;10.298;2024-02-15T01:24:36;2.77;;;1.80;;
39140;SDS011;24875;48.436;10.298;2024-02-15T01:27:03;2.80;;;2.13;;
39140;SDS011;24875;48.436;10.298;2024-02-15T01:29:32;3.13;;;1.80;;
39140;SDS011;24875;48.436;10.298;2024-02-15T01:32:00;2.77;;;1.50;;
39140;SDS011;24875;48.436;10.298;2024-02-15T01:34:27;4.97;;;1.87;;
39140;SDS011;24875;48.436;10.298;2024-02-15T01:36:54;2.93;;;1.70;;
39140;SDS011;24875;48.436;10.298;2024-02-15T01:39:20;4.30;;;1.87;;
39140;SDS011;24875;48.436;10.298;2024-02-15T01:41:47;3.77;;;2.27;;
39140;SDS011;24875;48.436;10.298;2024-02-15T01:44:15;4.33;;;1.77;;
39140;SDS011;24875;48.436;10.298;2024-02-15T01:46:43;3.70;;;2.00;;
39140;SDS011;24875;48.436;10.298;2024-02-15T01:49:14;7.57;;;2.47;;
39140;SDS011;24875;48.436;10.298;2024-02-15T01:51:41;3.10;;;1.80;;
39140;SDS011;24875;48.436;10.298;2024-02-15T01:54:09;2.90;;;1.70;;
39140;SDS011;24875;48.436;10.298;2024-02-15T01:56:36;4.10;;;1.60;;
39140;SDS011;24875;48.436;10.298;2024-02-15T01:59:03;3.73;;;1.90;;
39140;SDS011;24875;48.436;10.298;2024-02-15T02:01:31;2.47;;;1.87;;
39140;SDS011;24875;48.436;10.298;2024-02-15T02:03:58;4.00;;;2.20;;
39140;SDS011;24875;48.436;10.298;2024-02-15T02:06:27;3.07;;;1.70;;
39140;SDS011;24875;48.436;10.298;2024-02-15T02:08:54;3.13;;;1.97;;
39140;SDS011;24875;48.436;10.298;2024-02-15T02:11:21;3.57;;;1.90;;
39140;SDS011;24875;48.436;10.298;2024-02-15T02:13:47;5.07;;;1.80;;
39140;SDS011;24875;48.436;10.298;2024-02-15T02:16:26;2.70;;;2.10;;
39140;SDS011;24875;48.436;10.298;2024-02-15T02:18:54;3.30;;;1.90;;
39140;SDS011;24875;48.436;10.298;2024-02-15T02:21:21;3.93;;;2.00;;
39140;SDS011;24875;48.436;10.298;2024-02-15T02:23:52;3.80;;;2.03;;
39140;SDS011;24875;48.436;10.298;2024-02-15T02:26:20;5.13;;;1.90;;
39140;SDS011;24875;48.436;10.298;2024-02-15T02:28:47;4.30;;;1.90;;
39140;SDS011;24875;48.436;10.298;2024-02-15T02:31:14;3.77;;;2.37;;
39140;SDS011;24875;48.436;10.298;2024-02-15T02:33:41;3.70;;;2.03;;
39140;SDS011;24875;48.436;10.298;2024-02-15T02:36:07;3.33;;;1.87;;
39140;SDS011;24875;48.436;10.298;2024-02-15T02:38:37;3.60;;;1.83;;
39140;SDS011;24875;48.436;10.298;2024-02-15T02:41:04;4.47;;;2.27;;
39140;SDS011;24875;48.436;10.298;2024-02-15T02:43:32;2.57;;;1.67;;
39140;SDS011;24875;48.436;10.298;2024-02-15T02:45:59;2.93;;;1.70;;
39140;SDS011;24875;48.436;10.298;2024-02-15T02:48:26;3.80;;;2.33;;
39140;SDS011;24875;48.436;10.298;2024-02-15T02:50:52;6.27;;;2.10;;
39140;SDS011;24875;48.436;10.298;2024-02-15T02:53:19;3.43;;;1.87;;
39140;SDS011;24875;48.436;10.298;2024-02-15T02:55:45;2.33;;;1.70;;
39140;SDS011;24875;48.436;10.298;2024-02-15T02:58:12;5.80;;;1.80;;
39140;SDS011;24875;48.436;10.298;2024-02-15T03:00:40;2.77;;;1.70;;
39140;SDS011;24875;48.436;10.298;2024-02-15T03:03:07;3.67;;;1.93;;
39140;SDS011;24875;48.436;10.298;2024-02-15T03:05:34;7.47;;;2.27;;
39140;SDS011;24875;48.436;10.298;2024-02-15T03:08:01;3.27;;;1.73;;
39140;SDS011;24875;48.436;10.298;2024-02-15T03:10:27;3.47;;;2.03;;
39140;SDS011;24875;48.436;10.298;2024-02-15T03:12:54;3.17;;;1.97;;
39140;SDS011;24875;48.436;10.298;2024-02-15T03:15:20;3.30;;;2.10;;
39140;SDS011;24875;48.436;10.298;2024-02-15T03:17:49;3.53;;;1.40;;
39140;SDS011;24875;48.436;10.298;2024-02-15T03:20:16;4.37;;;1.80;;
39140;SDS011;24875;48.436;10.298;2024-02-15T03:22:50;3.03;;;1.70;;
39140;SDS011;24875;48.436;10.298;2024-02-15T03:25:17;4.53;;;1.80;;
39140;SDS011;24875;48.436;10.298;2024-02-15T03:27:44;4.93;;;2.40;;
39140;SDS011;24875;48.436;10.298;2024-02-15T03:30:11;3.60;;;2.50;;
39140;SDS011;24875;48.436;10.298;2024-02-15T03:32:37;2.80;;;2.00;;
39140;SDS011;24875;48.436;10.298;2024-02-15T03:35:07;4.60;;;1.97;;
39140;SDS011;24875;48.436;10.298;2024-02-15T03:37:34;4.70;;;2.50;;
39140;SDS011;24875;48.436;10.298;2024-02-15T03:40:05;3.17;;;1.80;;
39140;SDS011;24875;48.436;10.298;2024-02-15T03:42:33;4.03;;;1.83;;
39140;SDS011;24875;48.436;10.298;2024-02-15T03:45:01;4.00;;;1.77;;
39140;SDS011;24875;48.436;10.298;2024-02-15T03:47:28;11.30;;;2.20;;
39140;SDS011;24875;48.436;10.298;2024-02-15T03:49:55;3.57;;;1.97;;
39140;SDS011;24875;48.436;10.298;2024-02-15T03:52:23;5.60;;;1.77;;
39140;SDS011;24875;48.436;10.298;2024-02-15T03:54:49;3.60;;;2.20;;
39140;SDS011;24875;48.436;10.298;2024-02-15T03:57:17;3.67;;;2.13;;
39140;SDS011;24875;48.436;10.298;2024-02-15T03:59:46;5.47;;;2.30;;
39140;SDS011;24875;48.436;10.298;2024-02-15T04:02:15;5.17;;;1.90;;
39140;SDS011;24875;48.436;10.298;2024-02-15T04:04:42;3.47;;;1.93;;
39140;SDS011;24875;48.436;10.298;2024-02-15T04:07:11;3.33;;;2.03;;
39140;SDS011;24875;48.436;10.298;2024-02-15T04:09:39;4.00;;;1.77;;
39140;SDS011;24875;48.436;10.298;2024-02-15T04:12:06;4.50;;;2.10;;
39140;SDS011;24875;48.436;10.298;2024-02-15T04:14:33;5.50;;;2.27;;
39140;SDS011;24875;48.436;10.298;2024-02-15T04:17:00;5.07;;;2.07;;
39140;SDS011;24875;48.436;10.298;2024-02-15T04:19:26;3.33;;;2.03;;
39140;SDS011;24875;48.436;10.298;2024-02-15T04:21:53;5.93;;;2.13;;
39140;SDS011;24875;48.436;10.298;2024-02-15T04:24:20;3.73;;;2.27;;
39140;SDS011;24875;48.436;10.298;2024-02-15T04:26:48;4.40;;;2.07;;
39140;SDS011;24875;48.436;10.298;2024-02-15T04:29:14;6.53;;;2.23;;
39140;SDS011;24875;48.436;10.298;2024-02-15T04:31:42;3.70;;;2.23;;
39140;SDS011;24875;48.436;10.298;2024-02-15T04:34:09;3.73;;;2.30;;
39140;SDS011;24875;48.436;10.298;2024-02-15T04:36:36;5.37;;;2.20;;
39140;SDS011;24875;48.436;10.298;2024-02-15T04:39:02;12.57;;;4.00;;
39140;SDS011;24875;48.436;10.298;2024-02-15T04:41:29;22.87;;;7.17;;
39140;SDS011;24875;48.436;10.298;2024-02-15T04:43:57;17.40;;;5.60;;
39140;SDS011;24875;48.436;10.298;2024-02-15T04:46:24;33.60;;;9.70;;
39140;SDS011;24875;48.436;10.298;2024-02-15T04:48:50;34.07;;;11.33;;
39140;SDS011;24875;48.436;10.298;2024-02-15T04:51:17;38.87;;;11.67;;
39140;SDS011;24875;48.436;10.298;2024-02-15T04:53:44;28.33;;;9.00;;
39140;SDS011;24875;48.436;10.298;2024-02-15T04:56:12;28.00;;;9.57;;
39140;SDS011;24875;48.436;10.298;2024-02-15T04:58:39;23.20;;;8.30;;
39140;SDS011;24875;48.436;10.298;2024-02-15T05:01:13;17.77;;;4.97;;
39140;SDS011;24875;48.436;10.298;2024-02-15T05:03:40;20.00;;;5.73;;
39140;SDS011;24875;48.436;10.298;2024-02-15T05:06:07;60.43;;;15.10;;
39140;SDS011;24875;48.436;10.298;2024-02-15T05:08:34;51.50;;;13.13;;
39140;SDS011;24875;48.436;10.298;2024-02-15T05:11:07;59.87;;;11.77;;
39140;SDS011;24875;48.436;10.298;2024-02-15T05:13:38;103.10;;;14.93;;
39140;SDS011;24875;48.436;10.298;2024-02-15T05:16:05;52.30;;;10.60;;
39140;SDS011;24875;48.436;10.298;2024-02-15T05:18:33;27.73;;;9.40;;
39140;SDS011;24875;48.436;10.298;2024-02-15T05:21:00;14.13;;;4.97;;
39140;SDS011;24875;48.436;10.298;2024-02-15T05:23:28;7.40;;;3.33;;
39140;SDS011;24875;48.436;10.298;2024-02-15T05:25:55;8.33;;;2.93;;
39140;SDS011;24875;48.436;10.298;2024-02-15T05:28:23;9.40;;;3.90;;
39140;SDS011;24875;48.436;10.298;2024-02-15T05:31:07;10.63;;;4.87;;
39140;SDS011;24875;48.436;10.298;2024-02-15T05:33:36;6.90;;;3.43;;
39140;SDS011;24875;48.436;10.298;2024-02-15T05:36:05;7.73;;;3.60;;
39140;SDS011;24875;48.436;10.298;2024-02-15T05:38:33;5.67;;;3.13;;
39140;SDS011;24875;48.436;10.298;2024-02-15T05:41:00;7.43;;;3.40;;
39140;SDS011;24875;48.436;10.298;2024-02-15T05:43:28;5.60;;;2.83;;
39140;SDS011;24875;48.436;10.298;2024-02-15T05:45:55;6.83;;;3.50;;
39140;SDS011;24875;48.436;10.298;2024-02-15T05:48:24;8.50;;;3.10;;
39140;SDS011;24875;48.436;10.298;2024-02-15T05:50:52;8.20;;;3.67;;
39140;SDS011;24875;48.436;10.298;2024-02-15T05:53:19;6.37;;;3.10;;
39140;SDS011;24875;48.436;10.298;2024-02-15T05:55:45;7.83;;;3.27;;
39140;SDS011;24875;48.436;10.298;2024-02-15T05:58:14;5.90;;;2.93;;
39140;SDS011;24875;48.436;10.298;2024-02-15T06:00:41;8.50;;;3.43;;
39140;SDS011;24875;48.436;10.298;2024-02-15T06:03:09;6.73;;;3.07;;
39140;SDS011;24875;48.436;10.298;2024-02-15T06:05:37;5.37;;;2.87;;
39140;SDS011;24875;48.436;10.298;2024-02-15T06:08:06;4.23;;;2.53;;
39140;SDS011;24875;48.436;10.298;2024-02-15T06:10:33;5.33;;;2.70;;
39140;SDS011;24875;48.436;10.298;2024-02-15T06:12:59;6.40;;;3.03;;
39140;SDS011;24875;48.436;10.298;2024-02-15T06:15:26;5.10;;;2.37;;
39140;SDS011;24875;48.436;10.298;2024-02-15T06:17:52;4.00;;;2.63;;
39140;SDS011;24875;48.436;10.298;2024-02-15T06:20:19;3.73;;;2.10;;
39140;SDS011;24875;48.436;10.298;2024-02-15T06:22:46;3.37;;;2.10;;
39140;SDS011;24875;48.436;10.298;2024-02-15T06:25:14;7.70;;;2.13;;
39140;SDS011;24875;48.436;10.298;2024-02-15T06:27:45;6.93;;;2.50;;
39140;SDS011;24875;48.436;10.298;2024-02-15T06:30:13;4.63;;;2.53;;
39140;SDS011;24875;48.436;10.298;2024-02-15T06:32:58;4.03;;;2.20;;
39140;SDS011;24875;48.436;10.298;2024-02-15T06:35:38;4.83;;;2.20;;
39140;SDS011;24875;48.436;10.298;2024-02-15T06:38:22;5.47;;;1.97;;
39140;SDS011;24875;48.436;10.298;2024-02-15T06:41:08;3.17;;;2.03;;
39140;SDS011;24875;48.436;10.298;2024-02-15T06:43:34;4.13;;;2.20;;
39140;SDS011;24875;48.436;10.298;2024-02-15T06:46:01;6.33;;;2.77;;
39140;SDS011;24875;48.436;10.298;2024-02-15T06:48:28;4.40;;;2.33;;
39140;SDS011;24875;48.436;10.298;2024-02-15T06:50:56;4.50;;;2.37;;
39140;SDS011;24875;48.436;10.298;2024-02-15T06:53:23;3.53;;;2.20;;
39140;SDS011;24875;48.436;10.298;2024-02-15T06:55:49;3.03;;;1.73;;
39140;SDS011;24875;48.436;10.298;2024-02-15T06:58:17;3.73;;;2.40;;
39140;SDS011;24875;48.436;10.298;2024-02-15T07:00:45;3.70;;;2.17;;
39140;SDS011;24875;48.436;10.298;2024-02-15T07:03:13;5.17;;;2.40;;
39140;SDS011;24875;48.436;10.298;2024-02-15T07:05:41;3.53;;;2.43;;
39140;SDS011;24875;48.436;10.298;2024-02-15T07:08:08;2.90;;;1.83;;
39140;SDS011;24875;48.436;10.298;2024-02-15T07:10:36;3.57;;;1.87;;
39140;SDS011;24875;48.436;10.298;2024-02-15T07:13:03;3.80;;;2.43;;
39140;SDS011;24875;48.436;10.298;2024-02-15T07:15:32;3.07;;;2.20;;
39140;SDS011;24875;48.436;10.298;2024-02-15T07:18:03;5.40;;;2.87;;
39140;SDS011;24875;48.436;10.298;2024-02-15T07:20:31;5.20;;;2.87;;
39140;SDS011;24875;48.436;10.298;2024-02-15T07:22:57;4.37;;;2.50;;
39140;SDS011;24875;48.436;10.298;2024-02-15T07:25:24;4.80;;;2.60;;
39140;SDS011;24875;48.436;10.298;2024-02-15T07:27:50;8.07;;;2.10;;
39140;SDS011;24875;48.436;10.298;2024-02-15T07:30:17;3.57;;;2.40;;
39140;SDS011;24875;48.436;10.298;2024-02-15T07:32:45;4.13;;;2.63;;
39140;SDS011;24875;48.436;10.298;2024-02-15T07:35:12;4.43;;;2.63;;
39140;SDS011;24875;48.436;10.298;2024-02-15T07:37:50;3.90;;;2.47;;
39140;SDS011;24875;48.436;10.298;2024-02-15T07:40:17;3.20;;;2.07;;
39140;SDS011;24875;48.436;10.298;2024-02-15T07:42:44;4.60;;;2.70;;
39140;SDS011;24875;48.436;10.298;2024-02-15T07:45:11;6.43;;;3.20;;
39140;SDS011;24875;48.436;10.298;2024-02-15T07:47:38;7.17;;;3.10;;
39140;SDS011;24875;48.436;10.298;2024-02-15T07:50:06;7.30;;;2.90;;
39140;SDS011;24875;48.436;10.298;2024-02-15T07:52:34;5.70;;;2.90;;
39140;SDS011;24875;48.436;10.298;2024-02-15T07:55:01;5.03;;;2.90;;
39140;SDS011;24875;48.436;10.298;2024-02-15T07:57:33;7.33;;;3.40;;
39140;SDS011;24875;48.436;10.298;2024-02-15T08:00:00;6.17;;;3.10;;
39140;SDS011;24875;48.436;10.298;2024-02-15T08:02:27;4.90;;;2.80;;
39140;SDS011;24875;48.436;10.298;2024-02-15T08:04:53;5.67;;;2.67;;
39140;SDS011;24875;48.436;10.298;2024-02-15T08:07:21;4.73;;;2.33;;
39140;SDS011;24875;48.436;10.298;2024-02-15T08:09:47;4.93;;;2.80;;
39140;SDS011;24875;48.436;10.298;2024-02-15T08:12:15;5.87;;;2.80;;
39140;SDS011;24875;48.436;10.298;2024-02-15T08:14:43;5.30;;;2.70;;
39140;SDS011;24875;48.436;10.298;2024-02-15T08:17:10;5.70;;;2.37;;
39140;SDS011;24875;48.436;10.298;2024-02-15T08:19:37;3.57;;;1.80;;
39140;SDS011;24875;48.436;10.298;2024-02-15T08:22:06;3.90;;;2.10;;
39140;SDS011;24875;48.436;10.298;2024-02-15T08:24:36;3.73;;;2.10;;
39140;SDS011;24875;48.436;10.298;2024-02-15T08:27:02;5.60;;;2.23;;
39140;SDS011;24875;48.436;10.298;2024-02-15T08:29:29;4.43;;;2.20;;
39140;SDS011;24875;48.436;10.298;2024-02-15T08:31:56;5.03;;;2.30;;
39140;SDS011;24875;48.436;10.298;2024-02-15T08:34:23;4.63;;;2.67;;
39140;SDS011;24875;48.436;10.298;2024-02-15T08:36:49;3.90;;;2.10;;
39140;SDS011;24875;48.436;10.298;2024-02-15T08:39:16;7.87;;;2.40;;
39140;SDS011;24875;48.436;10.298;2024-02-15T08:41:44;2.80;;;1.90;;
39140;SDS011;24875;48.436;10.298;2024-02-15T08:44:11;3.47;;;1.83;;
39140;SDS011;24875;48.436;10.298;2024-02-15T08:46:40;3.80;;;2.20;;
39140;SDS011;24875;48.436;10.298;2024-02-15T08:49:07;6.53;;;2.20;;
39140;SDS011;24875;48.436;10.298;2024-02-15T08:51:33;3.23;;;2.10;;
39140;SDS011;24875;48.436;10.298;2024-02-15T08:54:00;4.57;;;2.23;;
39140;SDS011;24875;48.436;10.298;2024-02-15T08:56:26;3.67;;;1.97;;
39140;SDS011;24875;48.436;10.298;2024-02-15T08:58:54;3.27;;;1.83;;
39140;SDS011;24875;48.436;10.298;2024-02-15T09:01:22;2.97;;;2.03;;
39140;SDS011;24875;48.436;10.298;2024-02-15T09:03:49;3.83;;;2.23;;
39140;SDS011;24875;48.436;10.298;2024-02-15T09:06:15;3.97;;;2.10;;
39140;SDS011;24875;48.436;10.298;2024-02-15T09:08:42;4.63;;;2.20;;
39140;SDS011;24875;48.436;10.298;2024-02-15T09:11:08;5.57;;;2.90;;
39140;SDS011;24875;48.436;10.298;2024-02-15T09:13:37;3.57;;;2.23;;
39140;SDS011;24875;48.436;10.298;2024-02-15T09:16:05;2.90;;;2.10;;
39140;SDS011;24875;48.436;10.298;2024-02-15T09:18:32;8.20;;;2.40;;
39140;SDS011;24875;48.436;10.298;2024-02-15T09:20:59;5.53;;;2.10;;
39140;SDS011;24875;48.436;10.298;2024-02-15T09:23:25;6.17;;;2.73;;
39140;SDS011;24875;48.436;10.298;2024-02-15T09:25:52;4.40;;;2.10;;
39140;SDS011;24875;48.436;10.298;2024-02-15T09:28:18;4.47;;;2.27;;
39140;SDS011;24875;48.436;10.298;2024-02-15T09:30:47;2.83;;;1.53;;
39140;SDS011;24875;48.436;10.298;2024-02-15T09:33:17;3.23;;;1.57;;
39140;SDS011;24875;48.436;10.298;2024-02-15T09:35:44;4.07;;;2.10;;
39140;SDS011;24875;48.436;10.298;2024-02-15T09:38:11;4.10;;;2.47;;
39140;SDS011;24875;48.436;10.298;2024-02-15T09:40:38;7.53;;;1.80;;
39140;SDS011;24875;48.436;10.298;2024-02-15T09:43:05;3.53;;;1.50;;
39140;SDS011;24875;48.436;10.298;2024-02-15T09:45:32;3.57;;;1.83;;
39140;SDS011;24875;48.436;10.298;2024-02-15T09:48:00;3.93;;;1.73;;
39140;SDS011;24875;48.436;10.298;2024-02-15T09:50:35;5.27;;;2.00;;
39140;SDS011;24875;48.436;10.298;2024-02-15T09:53:05;3.93;;;2.17;;
39140;SDS011;24875;48.436;10.298;2024-02-15T09:55:34;3.03;;;1.73;;
39140;SDS011;24875;48.436;10.298;2024-02-15T09:58:00;3.13;;;1.77;;
39140;SDS011;24875;48.436;10.298;2024-02-15T10:00:29;5.20;;;1.60;;
39140;SDS011;24875;48.436;10.298;2024-02-15T10:02:56;4.67;;;1.90;;
39140;SDS011;24875;48.436;10.298;2024-02-15T10:05:26;3.40;;;1.90;;
39140;SDS011;24875;48.436;10.298;2024-02-15T10:07:54;2.93;;;1.50;;
39140;SDS011;24875;48.436;10.298;2024-02-15T10:10:21;3.33;;;1.90;;
39140;SDS011;24875;48.436;10.298;2024-02-15T10:12:52;1.60;;;1.30;;
39140;SDS011;24875;48.436;10.298;2024-02-15T10:15:33;2.40;;;1.60;;
39140;SDS011;24875;48.436;10.298;2024-02-15T10:18:01;3.63;;;1.77;;
39140;SDS011;24875;48.436;10.298;2024-02-15T10:20:28;4.70;;;2.33;;
39140;SDS011;24875;48.436;10.298;2024-02-15T10:23:08;2.57;;;1.63;;
39140;SDS011;24875;48.436;10.298;2024-02-15T10:25:35;2.00;;;1.30;;
39140;SDS011;24875;48.436;10.298;2024-02-15T10:28:03;3.00;;;1.80;;
39140;SDS011;24875;48.436;10.298;2024-02-15T10:30:32;4.33;;;2.03;;
39140;SDS011;24875;48.436;10.298;2024-02-15T10:33:00;5.07;;;1.40;;
39140;SDS011;24875;48.436;10.298;2024-02-15T10:35:26;3.73;;;1.50;;
39140;SDS011;24875;48.436;10.298;2024-02-15T10:38:04;3.23;;;1.43;;
39140;SDS011;24875;48.436;10.298;2024-02-15T10:40:33;3.57;;;1.60;;
39140;SDS011;24875;48.436;10.298;2024-02-15T10:43:01;2.58;;;1.50;;
39140;SDS011;24875;48.436;10.298;2024-02-15T10:45:29;3.10;;;1.10;;
39140;SDS011;24875;48.436;10.298;2024-02-15T10:47:56;2.22;;;1.27;;
39140;SDS011;24875;48.436;10.298;2024-02-15T10:50:23;4.28;;;1.63;;
39140;SDS011;24875;48.436;10.298;2024-02-15T10:52:51;1.73;;;1.00;;
39140;SDS011;24875;48.436;10.298;2024-02-15T10:55:24;1.70;;;0.90;;
39140;SDS011;24875;48.436;10.298;2024-02-15T10:58:01;2.75;;;1.48;;
39140;SDS011;24875;48.436;10.298;2024-02-15T11:00:30;3.50;;;1.42;;
39140;SDS011;24875;48.436;10.298;2024-02-15T11:03:00;1.30;;;0.90;;
39140;SDS011;24875;48.436;10.298;2024-02-15T11:05:31;2.45;;;1.08;;
39140;SDS011;24875;48.436;10.298;2024-02-15T11:07:59;2.05;;;1.00;;
39140;SDS011;24875;48.436;10.298;2024-02-15T11:10:28;3.47;;;1.05;;
39140;SDS011;24875;48.436;10.298;2024-02-15T11:12:55;1.25;;;0.63;;
39140;SDS011;24875;48.436;10.298;2024-02-15T11:15:43;2.45;;;1.00;;
39140;SDS011;24875;48.436;10.298;2024-02-15T11:18:41;7.88;;;1.05;;
39140;SDS011;24875;48.436;10.298;2024-02-15T11:21:09;2.58;;;1.55;;
39140;SDS011;24875;48.436;10.298;2024-02-15T11:23:36;1.85;;;0.70;;
39140;SDS011;24875;48.436;10.298;2024-02-15T11:26:05;0.90;;;0.75;;
39140;SDS011;24875;48.436;10.298;2024-02-15T11:28:38;3.13;;;0.82;;
39140;SDS011;24875;48.436;10.298;2024-02-15T11:31:06;1.70;;;0.90;;
39140;SDS011;24875;48.436;10.298;2024-02-15T11:33:37;2.03;;;0.73;;
39140;SDS011;24875;48.436;10.298;2024-02-15T11:36:04;0.65;;;0.50;;
39140;SDS011;24875;48.436;10.298;2024-02-15T11:38:32;1.70;;;0.90;;
39140;SDS011;24875;48.436;10.298;2024-02-15T11:41:00;1.15;;;0.63;;
39140;SDS011;24875;48.436;10.298;2024-02-15T11:43:48;0.50;;;0.50;;
39140;SDS011;24875;48.436;10.298;2024-02-15T11:46:19;0.85;;;0.57;;
39140;SDS011;24875;48.436;10.298;2024-02-15T11:48:46;0.70;;;0.55;;
39140;SDS011;24875;48.436;10.298;2024-02-15T11:51:24;1.95;;;0.88;;
39140;SDS011;24875;48.436;10.298;2024-02-15T11:54:04;0.30;;;0.30;;
39140;SDS011;24875;48.436;10.298;2024-02-15T11:59:42;0.45;;;0.38;;
39140;SDS011;24875;48.436;10.298;2024-02-15T12:02:18;1.30;;;0.57;;
39140;SDS011;24875;48.436;10.298;2024-02-15T12:05:03;0.93;;;0.50;;
39140;SDS011;24875;48.436;10.298;2024-02-15T12:07:53;1.63;;;0.70;;
39140;SDS011;24875;48.436;10.298;2024-02-15T12:10:37;0.85;;;0.57;;
39140;SDS011;24875;48.436;10.298;2024-02-15T12:13:26;1.30;;;0.95;;
39140;SDS011;24875;48.436;10.298;2024-02-15T12:16:15;3.78;;;0.50;;
39140;SDS011;24875;48.436;10.298;2024-02-15T12:18:59;1.67;;;0.80;;
39140;SDS011;24875;48.436;10.298;2024-02-15T12:21:28;0.90;;;0.65;;
39140;SDS011;24875;48.436;10.298;2024-02-15T12:23:54;0.57;;;0.50;;
39140;SDS011;24875;48.436;10.298;2024-02-15T12:26:21;0.82;;;0.57;;
39140;SDS011;24875;48.436;10.298;2024-02-15T12:28:51;2.95;;;0.60;;
39140;SDS011;24875;48.436;10.298;2024-02-15T12:31:21;1.70;;;0.70;;
39140;SDS011;24875;48.436;10.298;2024-02-15T12:33:58;2.58;;;0.70;;
39140;SDS011;24875;48.436;10.298;2024-02-15T12:36:26;1.27;;;0.95;;
39140;SDS011;24875;48.436;10.298;2024-02-15T12:38:58;5.05;;;1.10;;
39140;SDS011;24875;48.436;10.298;2024-02-15T12:41:25;0.60;;;0.60;;
39140;SDS011;24875;48.436;10.298;2024-02-15T12:43:52;1.55;;;0.77;;
39140;SDS011;24875;48.436;10.298;2024-02-15T12:46:18;1.63;;;0.70;;
39140;SDS011;24875;48.436;10.298;2024-02-15T12:48:47;1.15;;;0.75;;
39140;SDS011;24875;48.436;10.298;2024-02-15T12:51:14;0.60;;;0.60;;
39140;SDS011;24875;48.436;10.298;2024-02-15T12:53:41;3.20;;;0.57;;
39140;SDS011;24875;48.436;10.298;2024-02-15T12:56:08;2.75;;;0.63;;
39140;SDS011;24875;48.436;10.298;2024-02-15T12:58:35;2.45;;;0.82;;
39140;SDS011;24875;48.436;10.298;2024-02-15T13:01:01;3.00;;;0.90;;
39140;SDS011;24875;48.436;10.298;2024-02-15T13:03:30;3.20;;;1.05;;
39140;SDS011;24875;48.436;10.298;2024-02-15T13:05:57;1.23;;;0.73;;
39140;SDS011;24875;48.436;10.298;2024-02-15T13:08:24;1.63;;;0.63;;
39140;SDS011;24875;48.436;10.298;2024-02-15T13:10:50;0.73;;;0.60;;
39140;SDS011;24875;48.436;10.298;2024-02-15T13:13:17;1.45;;;0.80;;
39140;SDS011;24875;48.436;10.298;2024-02-15T13:15:45;2.55;;;0.55;;
39140;SDS011;24875;48.436;10.298;2024-02-15T13:18:12;3.60;;;0.70;;
39140;SDS011;24875;48.436;10.298;2024-02-15T13:20:40;0.60;;;0.50;;
39140;SDS011;24875;48.436;10.298;2024-02-15T13:23:07;1.15;;;0.70;;
39140;SDS011;24875;48.436;10.298;2024-02-15T13:25:40;2.13;;;1.00;;
39140;SDS011;24875;48.436;10.298;2024-02-15T13:28:08;2.15;;;0.88;;
39140;SDS011;24875;48.436;10.298;2024-02-15T13:30:35;1.58;;;0.70;;
39140;SDS011;24875;48.436;10.298;2024-02-15T13:33:02;1.55;;;0.77;;
39140;SDS011;24875;48.436;10.298;2024-02-15T13:35:29;0.43;;;0.43;;
39140;SDS011;24875;48.436;10.298;2024-02-15T13:37:57;1.05;;;0.90;;
39140;SDS011;24875;48.436;10.298;2024-02-15T13:40:24;1.63;;;0.60;;
39140;SDS011;24875;48.436;10.298;2024-02-15T13:42:53;3.03;;;0.80;;
39140;SDS011;24875;48.436;10.298;2024-02-15T13:45:24;0.93;;;0.52;;
39140;SDS011;24875;48.436;10.298;2024-02-15T13:47:57;0.82;;;0.60;;
39140;SDS011;24875;48.436;10.298;2024-02-15T13:50:25;2.00;;;0.65;;
39140;SDS011;24875;48.436;10.298;2024-02-15T13:52:54;0.63;;;0.52;;
39140;SDS011;24875;48.436;10.298;2024-02-15T13:55:22;6.28;;;0.82;;
39140;SDS011;24875;48.436;10.298;2024-02-15T13:57:50;1.42;;;0.52;;
39140;SDS011;24875;48.436;10.298;2024-02-15T14:00:17;1.05;;;0.55;;
39140;SDS011;24875;48.436;10.298;2024-02-15T14:02:48;1.05;;;0.65;;
39140;SDS011;24875;48.436;10.298;2024-02-15T14:05:14;2.05;;;0.60;;
39140;SDS011;24875;48.436;10.298;2024-02-15T14:07:44;1.33;;;0.70;;
39140;SDS011;24875;48.436;10.298;2024-02-15T14:10:12;0.82;;;0.55;;
39140;SDS011;24875;48.436;10.298;2024-02-15T14:12:40;1.92;;;0.80;;
39140;SDS011;24875;48.436;10.298;2024-02-15T14:15:07;0.55;;;0.55;;
39140;SDS011;24875;48.436;10.298;2024-02-15T14:17:34;2.78;;;0.80;;
39140;SDS011;24875;48.436;10.298;2024-02-15T14:20:00;0.82;;;0.68;;
39140;SDS011;24875;48.436;10.298;2024-02-15T14:22:29;1.33;;;0.70;;
39140;SDS011;24875;48.436;10.298;2024-02-15T14:24:56;1.60;;;0.60;;
39140;SDS011;24875;48.436;10.298;2024-02-15T14:27:23;0.73;;;0.55;;
39140;SDS011;24875;48.436;10.298;2024-02-15T14:29:50;1.05;;;0.70;;
39140;SDS011;24875;48.436;10.298;2024-02-15T14:32:34;2.47;;;1.10;;
39140;SDS011;24875;48.436;10.298;2024-02-15T14:35:19;1.10;;;0.57;;
39140;SDS011;24875;48.436;10.298;2024-02-15T14:37:46;3.05;;;1.77;;
39140;SDS011;24875;48.436;10.298;2024-02-15T14:40:13;1.42;;;0.82;;
39140;SDS011;24875;48.436;10.298;2024-02-15T14:42:40;1.88;;;0.70;;
39140;SDS011;24875;48.436;10.298;2024-02-15T14:45:09;2.75;;;0.80;;